Time;durP1;ratioP1;P1;durP2;ratioP2;P2;SDS_P1;SDS_P2;PMS_P1;PMS_P2;Temp;Humidity;BMP_temperature;BMP_pressure;BME280_temperature;BME280_humidity;BME280_pressure;Samples;Min_cycle;Max_cycle;Signal;HPM_P1;HPM_P2
2023/12/24 00:01:06;;;;;;;773.50;694.67;;;8.30;99.90;;;;;;4983819;28;20430;-74
2023/12/24 00:03:33;;;;;;;774.80;696.57;;;8.30;99.90;;;;;;5000093;28;20293;-74
2023/12/24 00:05:59;;;;;;;780.63;695.85;;;8.30;99.90;;;;;;5021183;28;20773;-74
2023/12/24 00:08:25;;;;;;;684.57;620.03;;;8.30;99.90;;;;;;4988825;28;20045;-73
2023/12/24 00:10:51;;;;;;;666.90;607.13;;;8.30;99.90;;;;;;5005472;28;20038;-74
2023/12/24 00:13:17;;;;;;;828.80;737.97;;;8.30;99.90;;;;;;5010694;28;20854;-74
2023/12/24 00:15:42;;;;;;;704.47;636.53;;;8.30;99.90;;;;;;5006837;28;20061;-74
2023/12/24 00:18:08;;;;;;;864.13;743.33;;;8.30;99.90;;;;;;4993433;28;20112;-75
2023/12/24 00:20:34;;;;;;;822.40;734.93;;;8.30;99.90;;;;;;5009313;28;20133;-75
2023/12/24 00:23:07;;;;;;;593.37;543.50;;;8.30;99.90;;;;;;4995012;28;20041;-75
2023/12/24 00:25:35;;;;;;;582.73;535.07;;;8.30;99.90;;;;;;5004759;28;20034;-75
2023/12/24 00:28:01;;;;;;;645.57;581.57;;;8.30;99.90;;;;;;5006681;28;20399;-74
2023/12/24 00:30:26;;;;;;;668.93;611.53;;;8.30;99.90;;;;;;4991711;28;20375;-75
2023/12/24 00:32:53;;;;;;;822.23;730.77;;;8.30;99.90;;;;;;5006562;28;20442;-73
2023/12/24 00:35:20;;;;;;;753.93;678.17;;;8.30;99.90;;;;;;5008966;28;20494;-75
2023/12/24 00:37:46;;;;;;;636.70;580.88;;;8.30;99.90;;;;;;5009783;28;20305;-75
2023/12/24 00:40:12;;;;;;;699.63;635.57;;;8.40;99.90;;;;;;4992482;28;20111;-75
2023/12/24 00:42:39;;;;;;;678.00;619.93;;;8.30;99.90;;;;;;5009245;28;20431;-75
2023/12/24 00:45:05;;;;;;;826.20;738.93;;;8.30;99.90;;;;;;4994708;28;20045;-74
2023/12/24 00:47:31;;;;;;;641.92;587.13;;;8.30;99.90;;;;;;4994526;28;20285;-74
2023/12/24 00:49:57;;;;;;;653.23;593.20;;;8.40;99.90;;;;;;4994587;28;20478;-74
2023/12/24 00:52:23;;;;;;;676.60;613.93;;;8.40;99.90;;;;;;5011020;28;20076;-74
2023/12/24 00:54:48;;;;;;;682.23;617.70;;;8.40;99.90;;;;;;5011469;28;20049;-74
2023/12/24 00:57:14;;;;;;;756.23;687.93;;;8.30;99.90;;;;;;4994406;28;20100;-74
2023/12/24 00:59:40;;;;;;;797.70;711.07;;;8.30;99.90;;;;;;5007011;28;20053;-74
2023/12/24 01:02:06;;;;;;;567.80;522.30;;;8.40;99.90;;;;;;5017134;28;20034;-74
2023/12/24 01:04:31;;;;;;;614.37;558.93;;;8.30;99.90;;;;;;5001867;28;20034;-75
2023/12/24 01:06:57;;;;;;;815.57;729.73;;;8.30;99.90;;;;;;4989824;28;20492;-74
2023/12/24 01:09:23;;;;;;;698.00;636.37;;;8.30;99.90;;;;;;4996177;28;20084;-74
2023/12/24 01:11:49;;;;;;;702.47;636.80;;;8.30;99.90;;;;;;5010350;28;20045;-75
2023/12/24 01:14:15;;;;;;;727.20;654.10;;;8.30;99.90;;;;;;4993683;28;20148;-75
2023/12/24 01:16:41;;;;;;;635.50;578.90;;;8.30;99.90;;;;;;4994287;28;20840;-75
2023/12/24 01:19:07;;;;;;;710.60;641.93;;;8.30;99.90;;;;;;5006051;28;20034;-76
2023/12/24 01:21:33;;;;;;;876.47;770.20;;;8.30;99.90;;;;;;4994573;28;20384;-75
2023/12/24 01:23:59;;;;;;;656.83;598.60;;;8.30;99.90;;;;;;5008655;28;20380;-75
2023/12/24 01:26:24;;;;;;;961.73;730.33;;;8.30;99.90;;;;;;5010088;28;20277;-76
2023/12/24 01:28:50;;;;;;;880.37;787.37;;;8.30;99.90;;;;;;4992254;28;20611;-75
2023/12/24 01:31:16;;;;;;;743.57;665.67;;;8.30;99.90;;;;;;5009967;28;20125;-75
2023/12/24 01:33:42;;;;;;;824.03;739.93;;;8.30;99.90;;;;;;5009738;28;20450;-76
2023/12/24 01:36:09;;;;;;;760.73;691.33;;;8.30;99.90;;;;;;5000639;28;20041;-75
2023/12/24 01:38:35;;;;;;;633.00;577.17;;;8.30;99.90;;;;;;4992310;28;20061;-74
2023/12/24 01:41:01;;;;;;;727.20;659.43;;;8.30;99.90;;;;;;4988081;28;20062;-75
2023/12/24 01:43:26;;;;;;;603.87;551.17;;;8.30;99.90;;;;;;5002550;28;20124;-75
2023/12/24 01:45:53;;;;;;;1183.47;766.73;;;8.30;99.90;;;;;;5018091;28;20041;-75
2023/12/24 01:48:20;;;;;;;849.60;754.60;;;8.30;99.90;;;;;;4994085;28;20041;-76
2023/12/24 01:50:47;;;;;;;827.20;736.25;;;8.30;99.90;;;;;;5006141;28;20288;-75
2023/12/24 01:53:15;;;;;;;850.03;758.00;;;8.30;99.90;;;;;;5011262;28;20060;-76
2023/12/24 01:55:41;;;;;;;599.60;550.80;;;8.30;99.90;;;;;;5016419;28;20748;-75
2023/12/24 01:58:07;;;;;;;633.30;557.47;;;8.30;99.90;;;;;;5017709;28;20673;-76
2023/12/24 02:00:33;;;;;;;710.57;643.50;;;8.40;99.90;;;;;;5015555;28;20292;-76
2023/12/24 02:03:00;;;;;;;1001.40;792.57;;;8.40;99.90;;;;;;5013919;28;20486;-76
2023/12/24 02:05:27;;;;;;;1125.30;818.17;;;8.40;99.90;;;;;;4987918;28;20073;-76
2023/12/24 02:07:55;;;;;;;624.55;570.10;;;8.40;99.90;;;;;;4993312;28;20296;-75
2023/12/24 02:10:20;;;;;;;761.08;683.92;;;8.50;99.90;;;;;;4993382;28;20389;-76
2023/12/24 02:12:46;;;;;;;761.00;684.27;;;8.50;99.90;;;;;;5009100;28;20042;-75
2023/12/24 02:15:12;;;;;;;774.97;691.03;;;8.50;99.90;;;;;;5010302;28;20162;-76
2023/12/24 02:17:39;;;;;;;647.07;593.50;;;8.50;99.90;;;;;;5009791;28;20049;-75
2023/12/24 02:20:05;;;;;;;696.73;632.27;;;8.50;99.90;;;;;;5006883;28;20097;-76
2023/12/24 02:22:31;;;;;;;750.23;678.63;;;8.50;99.90;;;;;;5006946;28;20298;-76
2023/12/24 02:24:57;;;;;;;712.07;640.93;;;8.50;99.90;;;;;;5009736;28;20335;-76
2023/12/24 02:27:46;;;;;;;678.60;619.47;;;8.50;99.90;;;;;;5010440;28;20049;-76
2023/12/24 02:30:18;;;;;;;696.20;629.50;;;8.50;99.90;;;;;;4988338;28;20040;-76
2023/12/24 02:32:47;;;;;;;933.77;818.87;;;8.50;99.90;;;;;;5011256;28;21086;-75
2023/12/24 02:35:14;;;;;;;735.80;665.27;;;8.50;99.90;;;;;;4992706;28;20768;-76
2023/12/24 02:37:40;;;;;;;778.73;700.63;;;8.50;99.90;;;;;;5009861;28;20787;-76
2023/12/24 02:40:06;;;;;;;682.00;618.67;;;8.50;99.90;;;;;;5010588;28;20277;-75
2023/12/24 02:42:32;;;;;;;650.50;595.30;;;8.50;99.90;;;;;;5009759;28;20064;-76
2023/12/24 02:44:58;;;;;;;784.77;702.60;;;8.60;99.90;;;;;;5008955;28;21771;-77
2023/12/24 02:47:23;;;;;;;795.93;714.57;;;8.60;99.90;;;;;;4993486;28;20049;-77
2023/12/24 02:49:49;;;;;;;877.93;766.20;;;8.60;99.90;;;;;;4992427;28;20038;-76
2023/12/24 02:52:15;;;;;;;788.47;656.93;;;8.60;99.90;;;;;;5009075;28;20536;-76
2023/12/24 02:54:40;;;;;;;972.47;798.87;;;8.60;99.90;;;;;;5009381;28;20096;-76
2023/12/24 02:57:06;;;;;;;783.47;701.93;;;8.60;99.90;;;;;;5012812;28;20153;-76
2023/12/24 02:59:32;;;;;;;917.57;784.77;;;8.60;99.90;;;;;;5011800;28;20041;-76
2023/12/24 03:01:57;;;;;;;804.17;720.90;;;8.60;99.90;;;;;;5011807;28;20040;-76
2023/12/24 03:04:23;;;;;;;879.97;782.83;;;8.60;99.90;;;;;;5009589;28;20452;-75
2023/12/24 03:06:49;;;;;;;845.00;677.20;;;8.60;99.90;;;;;;4997182;28;20049;-77
2023/12/24 03:09:14;;;;;;;712.77;644.70;;;8.60;99.90;;;;;;4996526;28;20127;-76
2023/12/24 03:11:40;;;;;;;647.23;587.90;;;8.60;99.90;;;;;;5013032;28;20417;-76
2023/12/24 03:14:06;;;;;;;698.17;633.90;;;8.60;99.90;;;;;;5012057;28;20155;-76
2023/12/24 03:16:31;;;;;;;813.67;726.03;;;8.60;99.90;;;;;;5013158;28;20069;-73
2023/12/24 03:18:57;;;;;;;825.27;736.43;;;8.60;99.90;;;;;;5012132;28;20041;-74
2023/12/24 03:21:23;;;;;;;712.40;646.10;;;8.70;99.90;;;;;;5009159;28;20400;-74
2023/12/24 03:23:48;;;;;;;666.93;605.37;;;8.60;99.90;;;;;;5015706;28;20038;-75
2023/12/24 03:26:21;;;;;;;1027.67;793.97;;;8.70;99.90;;;;;;5012310;28;20045;-75
2023/12/24 03:28:51;;;;;;;722.00;652.23;;;8.70;99.90;;;;;;5008954;28;20123;-75
2023/12/24 03:31:17;;;;;;;851.37;757.87;;;8.70;99.90;;;;;;4996100;28;20284;-75
2023/12/24 03:33:43;;;;;;;1019.33;811.33;;;8.70;99.90;;;;;;5011803;28;20375;-76
2023/12/24 03:36:09;;;;;;;769.07;686.67;;;8.70;99.90;;;;;;5025744;28;20714;-75
2023/12/24 03:38:36;;;;;;;902.20;790.87;;;8.70;99.90;;;;;;5011772;28;20089;-75
2023/12/24 03:41:02;;;;;;;617.47;567.43;;;8.70;99.90;;;;;;4996123;28;20296;-75
2023/12/24 03:43:29;;;;;;;761.87;681.90;;;8.70;99.90;;;;;;5011824;28;20786;-75
2023/12/24 03:45:54;;;;;;;805.23;722.10;;;8.70;99.90;;;;;;4995564;28;20333;-75
2023/12/24 03:48:20;;;;;;;661.53;603.17;;;8.70;99.90;;;;;;5012074;28;20704;-75
2023/12/24 03:50:47;;;;;;;928.43;818.30;;;8.70;99.90;;;;;;5012316;28;20041;-75
2023/12/24 03:53:12;;;;;;;1227.20;867.87;;;8.70;99.90;;;;;;4995508;28;20572;-75
2023/12/24 03:55:38;;;;;;;761.67;688.03;;;8.70;99.90;;;;;;5012641;28;20296;-75
2023/12/24 03:58:04;;;;;;;881.87;786.50;;;8.70;99.90;;;;;;5010235;28;20099;-76
2023/12/24 04:00:29;;;;;;;903.37;773.37;;;8.70;99.90;;;;;;4995626;28;20506;-75
2023/12/24 04:02:55;;;;;;;679.27;620.20;;;8.70;99.90;;;;;;5001598;28;20057;-75
2023/12/24 04:05:21;;;;;;;952.27;783.70;;;8.70;99.90;;;;;;4991115;28;20041;-75
2023/12/24 04:07:47;;;;;;;745.63;671.97;;;8.80;99.90;;;;;;5011063;28;20040;-74
2023/12/24 04:10:13;;;;;;;741.70;669.23;;;8.80;99.90;;;;;;4993967;28;20792;-74
2023/12/24 04:12:40;;;;;;;754.43;623.57;;;8.80;99.90;;;;;;5006775;28;20459;-75
2023/12/24 04:15:07;;;;;;;645.67;588.80;;;8.80;99.90;;;;;;5010029;28;20502;-75
2023/12/24 04:17:36;;;;;;;971.40;724.73;;;8.80;99.90;;;;;;4994891;28;20392;-75
2023/12/24 04:20:06;;;;;;;990.63;818.40;;;8.80;99.90;;;;;;4990893;28;20356;-75
2023/12/24 04:22:32;;;;;;;761.50;691.70;;;8.80;99.90;;;;;;4992209;28;20301;-75
2023/12/24 04:24:58;;;;;;;773.37;697.13;;;8.80;99.90;;;;;;4990062;28;20765;-75
2023/12/24 04:27:24;;;;;;;693.17;634.50;;;8.90;99.90;;;;;;5008777;28;20789;-75
2023/12/24 04:29:51;;;;;;;674.90;613.87;;;8.90;99.90;;;;;;5008133;28;20277;-75
2023/12/24 04:32:18;;;;;;;708.90;644.87;;;8.90;99.90;;;;;;4995421;28;20641;-75
2023/12/24 04:34:44;;;;;;;766.97;690.97;;;8.90;99.90;;;;;;4995678;28;20781;-75
2023/12/24 04:37:10;;;;;;;573.87;527.23;;;8.90;99.90;;;;;;4993811;28;20357;-75
2023/12/24 04:39:36;;;;;;;730.13;641.90;;;8.90;99.90;;;;;;5011116;28;20070;-76
2023/12/24 04:42:02;;;;;;;828.50;684.10;;;8.90;99.90;;;;;;5011381;28;20308;-75
2023/12/24 04:44:28;;;;;;;1105.23;829.17;;;9.00;99.90;;;;;;5011261;28;20502;-75
2023/12/24 04:46:53;;;;;;;802.43;719.83;;;9.00;99.90;;;;;;5009100;28;20285;-76
2023/12/24 04:49:19;;;;;;;799.30;720.03;;;9.00;99.90;;;;;;5010956;28;20030;-75
2023/12/24 04:51:45;;;;;;;1018.53;785.40;;;9.00;99.90;;;;;;5010325;28;20111;-76
2023/12/24 04:54:12;;;;;;;768.87;694.77;;;9.00;99.90;;;;;;4993350;28;20041;-75
2023/12/24 04:56:37;;;;;;;978.07;783.23;;;9.00;99.90;;;;;;5010119;28;20288;-76
2023/12/24 04:59:03;;;;;;;843.27;752.33;;;9.00;99.90;;;;;;4994290;28;20295;-74
2023/12/24 05:01:30;;;;;;;931.83;767.30;;;9.00;99.90;;;;;;4992925;28;20045;-75
2023/12/24 05:03:56;;;;;;;709.00;642.67;;;9.00;99.90;;;;;;5007422;28;20038;-75
2023/12/24 05:06:21;;;;;;;692.70;629.40;;;9.10;99.90;;;;;;4991238;28;20799;-75
2023/12/24 05:08:48;;;;;;;661.20;603.40;;;9.10;99.90;;;;;;5009605;28;20038;-75
2023/12/24 05:11:13;;;;;;;596.80;546.10;;;9.10;99.90;;;;;;5011102;28;20096;-76
2023/12/24 05:13:39;;;;;;;805.73;725.40;;;9.10;99.90;;;;;;5008565;28;20323;-75
2023/12/24 05:16:06;;;;;;;884.90;775.40;;;9.10;99.90;;;;;;4994404;28;20046;-76
2023/12/24 05:18:35;;;;;;;830.57;739.50;;;9.10;99.90;;;;;;4992534;28;20490;-75
2023/12/24 05:21:01;;;;;;;1079.03;782.20;;;9.10;99.90;;;;;;5010159;28;20356;-75
2023/12/24 05:23:27;;;;;;;783.67;705.30;;;9.20;99.90;;;;;;5009838;28;20343;-75
2023/12/24 05:25:53;;;;;;;660.60;597.70;;;9.20;99.90;;;;;;5010477;28;20293;-75
2023/12/24 05:28:18;;;;;;;711.20;649.40;;;9.20;99.90;;;;;;5010555;28;20994;-75
2023/12/24 05:30:45;;;;;;;674.57;611.23;;;9.20;99.90;;;;;;5010074;28;20092;-75
2023/12/24 05:33:11;;;;;;;1181.60;851.50;;;9.30;99.90;;;;;;4994131;28;20045;-75
2023/12/24 05:35:37;;;;;;;655.67;599.10;;;9.30;99.90;;;;;;5009467;28;20276;-75
2023/12/24 05:38:03;;;;;;;672.20;613.30;;;9.30;99.90;;;;;;5011466;28;20645;-75
2023/12/24 05:40:28;;;;;;;651.33;594.23;;;9.30;99.90;;;;;;5006356;28;20410;-75
2023/12/24 05:42:54;;;;;;;731.73;663.57;;;9.30;99.90;;;;;;5019788;28;20073;-75
2023/12/24 05:45:20;;;;;;;848.40;755.80;;;9.30;99.90;;;;;;5010422;28;20125;-75
2023/12/24 05:47:45;;;;;;;832.60;741.90;;;9.30;99.90;;;;;;5010534;28;20038;-75
2023/12/24 05:50:11;;;;;;;702.43;638.87;;;9.30;99.90;;;;;;4993260;28;20041;-76
2023/12/24 05:52:39;;;;;;;649.03;591.77;;;9.30;99.90;;;;;;5009468;28;20038;-75
2023/12/24 05:55:06;;;;;;;720.20;653.93;;;9.30;99.90;;;;;;5026002;28;20284;-76
2023/12/24 05:57:32;;;;;;;752.60;676.60;;;9.30;99.90;;;;;;5015166;28;20281;-75
2023/12/24 05:59:57;;;;;;;770.30;695.47;;;9.30;99.90;;;;;;5010172;28;20384;-75
2023/12/24 06:02:23;;;;;;;667.80;606.83;;;9.30;99.90;;;;;;4994159;28;20046;-75
2023/12/24 06:04:49;;;;;;;823.13;740.30;;;9.40;99.90;;;;;;5011048;28;20038;-76
2023/12/24 06:07:15;;;;;;;843.83;745.03;;;9.40;99.90;;;;;;4993462;28;20038;-75
2023/12/24 06:09:40;;;;;;;832.00;740.93;;;9.40;99.90;;;;;;5012888;28;20095;-75
2023/12/24 06:12:06;;;;;;;797.00;716.33;;;9.40;99.90;;;;;;5009014;28;20044;-75
2023/12/24 06:14:32;;;;;;;820.23;738.00;;;9.40;99.90;;;;;;5010236;28;20049;-75
2023/12/24 06:16:58;;;;;;;785.73;701.37;;;9.40;99.90;;;;;;5010370;28;20281;-76
2023/12/24 06:19:23;;;;;;;645.33;590.43;;;9.40;99.90;;;;;;5008902;28;20152;-75
2023/12/24 06:21:50;;;;;;;629.73;576.30;;;9.40;99.90;;;;;;4992730;28;20044;-75
2023/12/24 06:24:21;;;;;;;744.07;674.37;;;9.40;99.90;;;;;;4994027;28;20041;-75
2023/12/24 06:26:51;;;;;;;751.50;680.63;;;9.40;99.90;;;;;;5010134;28;20273;-75
2023/12/24 06:29:17;;;;;;;702.60;639.57;;;9.50;99.90;;;;;;5006305;28;20314;-75
2023/12/24 06:31:43;;;;;;;590.17;538.90;;;9.40;99.90;;;;;;5011733;28;20372;-76
2023/12/24 06:34:11;;;;;;;706.67;640.57;;;9.50;99.90;;;;;;5013992;28;20284;-75
2023/12/24 06:36:37;;;;;;;904.10;776.97;;;9.50;99.90;;;;;;4994879;28;20307;-75
2023/12/24 06:39:03;;;;;;;890.93;755.90;;;9.50;99.90;;;;;;5009724;28;20666;-75
2023/12/24 06:41:28;;;;;;;875.40;779.37;;;9.50;99.90;;;;;;5001266;28;20333;-76
2023/12/24 06:43:54;;;;;;;815.07;728.73;;;9.60;99.90;;;;;;5012935;28;20383;-75
2023/12/24 06:46:20;;;;;;;1037.67;842.37;;;9.60;99.90;;;;;;5013882;28;20034;-76
2023/12/24 06:48:46;;;;;;;745.83;675.40;;;9.60;99.90;;;;;;5014556;28;20418;-76
2023/12/24 06:51:12;;;;;;;631.43;575.50;;;9.60;99.90;;;;;;5014816;28;20281;-76
2023/12/24 06:53:38;;;;;;;799.33;719.03;;;9.60;99.90;;;;;;5013539;28;20495;-76
2023/12/24 06:56:04;;;;;;;847.00;728.90;;;9.60;99.90;;;;;;5013325;28;20279;-76
2023/12/24 06:58:30;;;;;;;901.43;723.37;;;9.70;99.90;;;;;;5013678;28;20553;-76
2023/12/24 07:00:56;;;;;;;842.93;729.97;;;9.70;99.90;;;;;;4996564;28;20335;-76
2023/12/24 07:03:21;;;;;;;736.50;661.83;;;9.70;99.90;;;;;;4995760;28;20077;-76
2023/12/24 07:05:47;;;;;;;812.50;724.57;;;9.70;99.90;;;;;;5012359;28;20038;-76
2023/12/24 07:08:13;;;;;;;920.83;795.23;;;9.70;99.90;;;;;;4996648;28;20482;-78
2023/12/24 07:10:38;;;;;;;754.60;680.97;;;9.70;99.90;;;;;;5013278;28;20049;-76
2023/12/24 07:13:04;;;;;;;671.03;612.30;;;9.70;99.90;;;;;;5012904;28;20410;-76
2023/12/24 07:15:40;;;;;;;903.10;778.73;;;9.70;99.90;;;;;;5012637;28;20129;-76
2023/12/24 07:18:06;;;;;;;634.50;579.27;;;9.80;99.90;;;;;;5011968;28;20048;-76
2023/12/24 07:20:32;;;;;;;756.80;684.10;;;9.80;99.90;;;;;;5002043;28;20618;-76
2023/12/24 07:22:58;;;;;;;1116.30;831.70;;;9.80;99.90;;;;;;5012384;28;20317;-76
2023/12/24 07:25:23;;;;;;;787.90;709.23;;;9.80;99.90;;;;;;5012074;28;20129;-77
2023/12/24 07:27:49;;;;;;;1163.60;840.77;;;9.90;99.90;;;;;;5013006;28;20030;-76
2023/12/24 07:30:15;;;;;;;757.47;682.33;;;9.90;99.90;;;;;;5012254;28;20045;-76
2023/12/24 07:32:45;;;;;;;1069.67;823.93;;;9.90;99.90;;;;;;5011920;28;20079;-76
2023/12/24 07:35:12;;;;;;;748.73;678.87;;;9.90;99.90;;;;;;4995109;28;20438;-76
2023/12/24 07:37:38;;;;;;;804.07;717.23;;;9.90;99.90;;;;;;5011784;28;20383;-76
2023/12/24 07:40:08;;;;;;;851.93;750.23;;;9.90;99.90;;;;;;4989308;28;20857;-76
2023/12/24 07:42:35;;;;;;;760.00;680.20;;;10.00;99.90;;;;;;4993647;28;20305;-76
2023/12/24 07:45:03;;;;;;;766.30;677.97;;;10.00;99.90;;;;;;5012480;28;21127;-77
2023/12/24 07:47:29;;;;;;;835.93;736.83;;;10.00;99.90;;;;;;4994514;28;20301;-76
2023/12/24 07:49:55;;;;;;;822.27;730.50;;;10.00;99.90;;;;;;5012503;28;20410;-77
2023/12/24 07:52:21;;;;;;;775.57;695.60;;;10.00;99.90;;;;;;5011800;28;20288;-76
2023/12/24 07:54:46;;;;;;;827.50;738.27;;;10.00;99.90;;;;;;5011537;28;20050;-76
2023/12/24 07:57:12;;;;;;;818.00;728.17;;;10.00;99.90;;;;;;5012146;28;20053;-74
2023/12/24 07:59:37;;;;;;;808.23;724.23;;;10.00;99.90;;;;;;5013519;28;20073;-74
2023/12/24 08:02:03;;;;;;;860.03;768.90;;;10.00;99.90;;;;;;5011421;28;20068;-76
2023/12/24 08:04:31;;;;;;;776.37;700.17;;;10.10;99.90;;;;;;4994956;28;20116;-75
2023/12/24 08:06:57;;;;;;;724.03;661.67;;;10.10;99.90;;;;;;4995612;28;20029;-75
2023/12/24 08:09:23;;;;;;;879.63;784.83;;;10.10;99.90;;;;;;5010848;28;20355;-75
2023/12/24 08:11:49;;;;;;;696.13;636.30;;;10.10;99.90;;;;;;5011391;28;20285;-75
2023/12/24 08:14:15;;;;;;;861.50;768.07;;;10.10;99.90;;;;;;5010944;28;20131;-75
2023/12/24 08:16:40;;;;;;;758.50;690.27;;;10.10;99.90;;;;;;4994846;28;20137;-76
2023/12/24 08:19:06;;;;;;;743.67;675.20;;;10.10;99.90;;;;;;5010360;28;20120;-75
2023/12/24 08:21:32;;;;;;;737.97;669.60;;;10.10;99.90;;;;;;4995053;28;20049;-76
2023/12/24 08:23:57;;;;;;;737.33;668.77;;;10.10;99.90;;;;;;5012998;28;20030;-76
2023/12/24 08:26:23;;;;;;;735.47;666.80;;;10.10;99.90;;;;;;5009710;28;20079;-76
2023/12/24 08:28:49;;;;;;;685.50;626.30;;;10.20;99.90;;;;;;4995408;28;20030;-75
2023/12/24 08:31:15;;;;;;;914.00;813.83;;;10.20;99.90;;;;;;5011117;28;20034;-75
2023/12/24 08:33:40;;;;;;;763.70;692.03;;;10.20;99.90;;;;;;4988982;28;20498;-75
2023/12/24 08:36:12;;;;;;;888.43;787.50;;;10.20;99.90;;;;;;5006744;28;20038;-76
2023/12/24 08:38:38;;;;;;;1183.03;794.03;;;10.20;99.90;;;;;;5009025;28;20123;-77
2023/12/24 08:41:03;;;;;;;741.03;669.83;;;10.30;99.90;;;;;;5010495;28;21072;-75
2023/12/24 08:43:29;;;;;;;880.33;783.43;;;10.30;99.90;;;;;;5015374;28;20112;-75
2023/12/24 08:45:59;;;;;;;1009.93;805.30;;;10.30;99.90;;;;;;5010331;28;20037;-76
2023/12/24 08:48:25;;;;;;;770.00;692.17;;;10.30;99.90;;;;;;5010679;28;20049;-76
2023/12/24 08:50:50;;;;;;;706.43;642.87;;;10.30;99.90;;;;;;5010604;28;20284;-76
2023/12/24 08:53:16;;;;;;;915.83;801.67;;;10.30;99.90;;;;;;5009584;28;20125;-76
2023/12/24 08:55:42;;;;;;;1071.67;814.30;;;10.40;99.90;;;;;;5010382;28;20084;-76
2023/12/24 08:58:07;;;;;;;1092.07;862.33;;;10.40;99.90;;;;;;4993989;28;20539;-76
2023/12/24 09:00:33;;;;;;;931.00;746.83;;;10.40;99.90;;;;;;5004377;28;20045;-75
2023/12/24 09:02:59;;;;;;;771.63;696.40;;;10.40;99.90;;;;;;4997329;28;20121;-75
2023/12/24 09:05:25;;;;;;;1044.17;831.10;;;10.50;99.90;;;;;;5005834;28;20126;-76
2023/12/24 09:07:50;;;;;;;1146.07;858.10;;;10.50;99.90;;;;;;5004566;28;20034;-75
2023/12/24 09:10:17;;;;;;;796.17;710.50;;;10.50;99.90;;;;;;4991293;28;20041;-75
2023/12/24 09:12:43;;;;;;;857.63;763.23;;;10.50;99.90;;;;;;5010866;28;20426;-75
2023/12/24 09:15:09;;;;;;;812.20;724.37;;;10.50;99.90;;;;;;4992093;28;20289;-74
2023/12/24 09:17:34;;;;;;;882.93;776.57;;;10.50;99.90;;;;;;5010238;28;20045;-75
2023/12/24 09:20:00;;;;;;;774.50;699.37;;;10.60;99.90;;;;;;5006302;28;20149;-75
2023/12/24 09:22:26;;;;;;;923.30;815.43;;;10.60;99.90;;;;;;5005559;28;20410;-74
2023/12/24 09:24:52;;;;;;;1164.57;859.17;;;10.60;99.90;;;;;;5007167;28;20045;-74
2023/12/24 09:27:17;;;;;;;936.13;801.27;;;10.60;99.90;;;;;;5005305;28;20038;-73
2023/12/24 09:29:43;;;;;;;841.90;751.93;;;10.60;99.90;;;;;;5004121;28;20045;-74
2023/12/24 09:32:09;;;;;;;794.60;712.27;;;10.60;99.90;;;;;;5004142;28;20493;-73
2023/12/24 09:34:34;;;;;;;846.70;755.03;;;10.60;99.90;;;;;;5005483;28;20045;-74
2023/12/24 09:37:00;;;;;;;966.40;791.43;;;10.60;99.90;;;;;;5003316;28;20041;-73
2023/12/24 09:39:26;;;;;;;1016.73;818.80;;;10.60;99.90;;;;;;5002502;28;20053;-74
2023/12/24 09:41:54;;;;;;;745.60;675.33;;;10.60;99.90;;;;;;5007609;28;20727;-75
2023/12/24 09:44:22;;;;;;;794.23;713.27;;;10.60;99.90;;;;;;5001173;28;20045;-74
2023/12/24 09:46:48;;;;;;;804.37;723.33;;;10.60;99.90;;;;;;5005140;28;20657;-73
2023/12/24 09:49:13;;;;;;;779.67;702.10;;;10.60;99.90;;;;;;5004951;28;20299;-74
2023/12/24 09:51:42;;;;;;;1076.87;851.90;;;10.70;99.90;;;;;;5005129;28;20046;-74
2023/12/24 09:54:08;;;;;;;937.47;791.57;;;10.70;99.90;;;;;;5006396;28;20037;-74
2023/12/24 09:56:34;;;;;;;827.30;741.87;;;10.70;99.90;;;;;;4989499;28;20311;-73
2023/12/24 09:59:00;;;;;;;881.17;770.90;;;10.80;99.90;;;;;;5018190;28;20281;-73
2023/12/24 10:01:26;;;;;;;775.03;700.30;;;10.80;99.90;;;;;;4985448;28;20054;-75
2023/12/24 10:03:51;;;;;;;759.27;688.47;;;10.80;99.90;;;;;;5005377;28;20296;-74
2023/12/24 10:06:17;;;;;;;754.30;685.07;;;10.90;99.90;;;;;;5006597;28;20038;-73
2023/12/24 10:08:43;;;;;;;914.53;798.23;;;10.90;99.90;;;;;;4991780;28;20093;-74
2023/12/24 10:11:13;;;;;;;1084.23;846.07;;;10.90;99.90;;;;;;5005723;28;20329;-73
2023/12/24 10:13:39;;;;;;;1037.23;830.00;;;10.90;99.90;;;;;;4989284;28;20042;-73
2023/12/24 10:16:05;;;;;;;836.73;746.37;;;10.90;99.90;;;;;;5004295;28;20335;-74
2023/12/24 10:18:32;;;;;;;852.00;719.27;;;10.90;99.90;;;;;;5007821;28;20326;-74
2023/12/24 10:21:07;;;;;;;828.00;725.77;;;10.90;99.90;;;;;;4989677;28;20315;-73
2023/12/24 10:23:33;;;;;;;838.90;747.33;;;10.90;99.90;;;;;;5007890;28;20794;-74
2023/12/24 10:26:04;;;;;;;1082.50;826.57;;;10.90;99.90;;;;;;4994559;28;20724;-73
2023/12/24 10:28:30;;;;;;;818.17;731.77;;;10.90;99.90;;;;;;4992636;28;20550;-74
2023/12/24 10:31:07;;;;;;;1104.97;887.63;;;10.90;99.90;;;;;;5008585;28;20768;-74
2023/12/24 10:33:37;;;;;;;987.93;840.27;;;10.90;99.90;;;;;;4996668;28;20280;-74
2023/12/24 10:36:04;;;;;;;1229.07;882.97;;;10.90;99.90;;;;;;5010523;28;20343;-74
2023/12/24 10:38:30;;;;;;;949.43;804.33;;;10.90;99.90;;;;;;5011225;28;20286;-73
2023/12/24 10:40:56;;;;;;;866.30;765.87;;;10.90;99.90;;;;;;5014599;28;20297;-74
2023/12/24 10:43:22;;;;;;;1074.07;832.60;;;10.90;99.90;;;;;;5000457;28;20316;-74
2023/12/24 10:45:47;;;;;;;859.20;771.20;;;10.90;99.90;;;;;;4996222;28;20517;-73
2023/12/24 10:48:13;;;;;;;806.83;728.13;;;10.90;99.90;;;;;;5013334;28;20522;-74
2023/12/24 10:50:39;;;;;;;1024.73;794.60;;;10.90;99.90;;;;;;5013351;28;20120;-74
2023/12/24 10:53:05;;;;;;;835.07;748.43;;;10.80;99.90;;;;;;5020128;28;20045;-73
2023/12/24 10:55:33;;;;;;;927.23;817.70;;;10.80;99.90;;;;;;5012271;28;20037;-74
2023/12/24 10:58:09;;;;;;;1017.40;810.83;;;10.80;99.90;;;;;;4997119;28;20045;-73
2023/12/24 11:00:35;;;;;;;981.23;810.50;;;10.80;99.90;;;;;;5013269;28;20288;-74
2023/12/24 11:03:01;;;;;;;998.23;858.00;;;10.80;99.90;;;;;;4996357;28;20315;-74
2023/12/24 11:05:43;;;;;;;1146.83;880.00;;;10.80;99.90;;;;;;4996593;28;20061;-74
2023/12/24 11:08:21;;;;;;;968.43;840.33;;;10.80;99.90;;;;;;4990525;28;20061;-73
2023/12/24 11:10:57;;;;;;;875.73;781.27;;;10.90;99.90;;;;;;5015885;28;20291;-74
2023/12/24 11:13:32;;;;;;;1009.13;842.97;;;10.90;99.90;;;;;;5013260;28;20801;-73
2023/12/24 11:16:02;;;;;;;1006.78;810.05;;;10.90;99.90;;;;;;4997980;28;20343;-73
2023/12/24 11:18:43;;;;;;;903.10;788.30;;;10.90;99.90;;;;;;5012122;28;20041;-74
2023/12/24 11:21:19;;;;;;;1170.73;866.77;;;11.00;99.90;;;;;;5012658;28;20293;-75
2023/12/24 11:24:14;;;;;;;1067.30;870.60;;;11.00;99.90;;;;;;5012933;28;20315;-74
2023/12/24 11:26:51;;;;;;;999.20;843.30;;;11.00;99.90;;;;;;5010327;28;20368;-73
2023/12/24 11:29:52;;;;;;;920.33;757.93;;;11.10;99.90;;;;;;4994640;28;20283;-73
2023/12/24 11:32:24;;;;;;;865.53;775.33;;;11.10;99.90;;;;;;5019169;28;20780;-73
2023/12/24 11:34:57;;;;;;;870.50;771.87;;;11.10;99.90;;;;;;5012330;28;20281;-73
2023/12/24 11:37:26;;;;;;;1238.17;878.17;;;11.10;99.90;;;;;;4995245;28;20281;-75
2023/12/24 11:40:09;;;;;;;941.87;798.60;;;11.10;99.90;;;;;;5008975;28;20320;-74
2023/12/24 11:42:51;;;;;;;964.27;790.60;;;11.10;99.90;;;;;;5001861;28;20380;-74
2023/12/24 11:45:26;;;;;;;1035.33;834.10;;;11.00;99.90;;;;;;5014863;28;20280;-74
2023/12/24 11:47:53;;;;;;;883.63;792.33;;;11.10;99.90;;;;;;5012681;28;20313;-75
2023/12/24 11:50:19;;;;;;;965.83;813.13;;;11.10;99.90;;;;;;5016612;28;20045;-74
2023/12/24 11:52:46;;;;;;;1012.33;844.77;;;11.10;99.90;;;;;;4996327;28;20288;-74
2023/12/24 11:55:16;;;;;;;897.80;802.00;;;11.10;99.90;;;;;;4996124;28;20383;-74
2023/12/24 11:57:42;;;;;;;929.13;802.90;;;11.10;99.90;;;;;;4994749;28;20316;-75
2023/12/24 12:00:25;;;;;;;797.50;713.30;;;11.10;99.90;;;;;;5016140;28;20285;-75
2023/12/24 12:02:57;;;;;;;1090.83;856.67;;;11.10;99.90;;;;;;5010949;28;20408;-74
2023/12/24 12:05:24;;;;;;;820.30;741.60;;;11.20;99.90;;;;;;5013220;28;20325;-74
2023/12/24 12:07:50;;;;;;;892.63;794.20;;;11.20;99.90;;;;;;5014725;28;20281;-75
2023/12/24 12:10:17;;;;;;;859.27;772.47;;;11.20;99.90;;;;;;5012656;28;20280;-74
2023/12/24 12:12:43;;;;;;;855.73;770.53;;;11.30;99.90;;;;;;5012208;28;20292;-73